sensor_id;sensor_type;location;lat;lon;timestamp;P1;durP1;ratioP1;P2;durP2;ratioP2
72422;SDS011;71399;54.146;38.734;2024-03-22T00:02:08;18.13;;;7.72;;
72422;SDS011;71399;54.146;38.734;2024-03-22T00:04:37;19.45;;;7.30;;
72422;SDS011;71399;54.146;38.734;2024-03-22T00:07:04;18.60;;;7.45;;
72422;SDS011;71399;54.146;38.734;2024-03-22T00:09:30;15.85;;;6.63;;
72422;SDS011;71399;54.146;38.734;2024-03-22T00:11:57;23.30;;;8.38;;
72422;SDS011;71399;54.146;38.734;2024-03-22T00:14:23;21.10;;;7.78;;
72422;SDS011;71399;54.146;38.734;2024-03-22T00:16:50;19.20;;;7.72;;
72422;SDS011;71399;54.146;38.734;2024-03-22T00:19:16;19.02;;;7.97;;
72422;SDS011;71399;54.146;38.734;2024-03-22T00:21:43;19.35;;;7.70;;
72422;SDS011;71399;54.146;38.734;2024-03-22T00:24:09;18.90;;;7.50;;
72422;SDS011;71399;54.146;38.734;2024-03-22T00:26:36;22.10;;;7.85;;
72422;SDS011;71399;54.146;38.734;2024-03-22T00:29:02;19.77;;;7.53;;
72422;SDS011;71399;54.146;38.734;2024-03-22T00:31:28;18.77;;;7.68;;
72422;SDS011;71399;54.146;38.734;2024-03-22T00:33:55;21.65;;;8.35;;
72422;SDS011;71399;54.146;38.734;2024-03-22T00:36:21;18.15;;;7.28;;
72422;SDS011;71399;54.146;38.734;2024-03-22T00:38:47;22.73;;;8.90;;
72422;SDS011;71399;54.146;38.734;2024-03-22T00:41:13;19.98;;;8.23;;
72422;SDS011;71399;54.146;38.734;2024-03-22T00:43:40;19.45;;;7.72;;
72422;SDS011;71399;54.146;38.734;2024-03-22T00:46:06;22.08;;;8.60;;
72422;SDS011;71399;54.146;38.734;2024-03-22T00:48:33;24.30;;;8.07;;
72422;SDS011;71399;54.146;38.734;2024-03-22T00:51:01;18.55;;;7.93;;
72422;SDS011;71399;54.146;38.734;2024-03-22T00:53:27;19.00;;;7.80;;
72422;SDS011;71399;54.146;38.734;2024-03-22T00:55:54;17.60;;;7.77;;
72422;SDS011;71399;54.146;38.734;2024-03-22T00:58:21;22.30;;;8.55;;
72422;SDS011;71399;54.146;38.734;2024-03-22T01:00:48;22.02;;;8.65;;
72422;SDS011;71399;54.146;38.734;2024-03-22T01:03:14;25.98;;;8.88;;
72422;SDS011;71399;54.146;38.734;2024-03-22T01:05:40;22.02;;;8.75;;
72422;SDS011;71399;54.146;38.734;2024-03-22T01:08:08;21.00;;;8.20;;
72422;SDS011;71399;54.146;38.734;2024-03-22T01:10:34;20.42;;;8.73;;
72422;SDS011;71399;54.146;38.734;2024-03-22T01:13:00;22.90;;;8.43;;
72422;SDS011;71399;54.146;38.734;2024-03-22T01:15:27;19.08;;;7.78;;
72422;SDS011;71399;54.146;38.734;2024-03-22T01:17:53;32.88;;;9.55;;
72422;SDS011;71399;54.146;38.734;2024-03-22T01:20:20;28.75;;;9.07;;
72422;SDS011;71399;54.146;38.734;2024-03-22T01:22:46;22.58;;;8.85;;
72422;SDS011;71399;54.146;38.734;2024-03-22T01:25:12;23.83;;;9.00;;
72422;SDS011;71399;54.146;38.734;2024-03-22T01:27:39;20.33;;;8.85;;
72422;SDS011;71399;54.146;38.734;2024-03-22T01:30:05;23.35;;;8.85;;
72422;SDS011;71399;54.146;38.734;2024-03-22T01:32:32;25.20;;;9.15;;
72422;SDS011;71399;54.146;38.734;2024-03-22T01:34:58;28.63;;;9.93;;
72422;SDS011;71399;54.146;38.734;2024-03-22T01:37:24;24.50;;;9.90;;
72422;SDS011;71399;54.146;38.734;2024-03-22T01:39:51;24.15;;;9.32;;
72422;SDS011;71399;54.146;38.734;2024-03-22T01:42:17;22.48;;;9.35;;
72422;SDS011;71399;54.146;38.734;2024-03-22T01:44:43;20.15;;;8.77;;
72422;SDS011;71399;54.146;38.734;2024-03-22T01:47:09;30.10;;;9.40;;
72422;SDS011;71399;54.146;38.734;2024-03-22T01:49:36;29.38;;;9.15;;
72422;SDS011;71399;54.146;38.734;2024-03-22T01:52:03;24.73;;;8.93;;
72422;SDS011;71399;54.146;38.734;2024-03-22T01:54:29;26.75;;;9.15;;
72422;SDS011;71399;54.146;38.734;2024-03-22T01:56:56;26.25;;;8.82;;
72422;SDS011;71399;54.146;38.734;2024-03-22T01:59:22;21.75;;;9.10;;
72422;SDS011;71399;54.146;38.734;2024-03-22T02:01:49;32.10;;;9.63;;
72422;SDS011;71399;54.146;38.734;2024-03-22T02:04:16;23.02;;;8.88;;
72422;SDS011;71399;54.146;38.734;2024-03-22T02:06:43;21.83;;;8.48;;
72422;SDS011;71399;54.146;38.734;2024-03-22T02:09:09;27.20;;;9.02;;
72422;SDS011;71399;54.146;38.734;2024-03-22T02:11:36;25.05;;;9.02;;
72422;SDS011;71399;54.146;38.734;2024-03-22T02:14:06;19.55;;;8.77;;
72422;SDS011;71399;54.146;38.734;2024-03-22T02:16:32;26.65;;;9.65;;
72422;SDS011;71399;54.146;38.734;2024-03-22T02:18:59;29.38;;;9.68;;
72422;SDS011;71399;54.146;38.734;2024-03-22T02:21:25;20.65;;;7.88;;
72422;SDS011;71399;54.146;38.734;2024-03-22T02:23:51;23.90;;;9.35;;
72422;SDS011;71399;54.146;38.734;2024-03-22T02:26:17;25.20;;;8.45;;
72422;SDS011;71399;54.146;38.734;2024-03-22T02:28:44;25.55;;;8.73;;
72422;SDS011;71399;54.146;38.734;2024-03-22T02:31:10;28.52;;;9.82;;
72422;SDS011;71399;54.146;38.734;2024-03-22T02:33:36;26.40;;;9.55;;
72422;SDS011;71399;54.146;38.734;2024-03-22T02:36:02;19.92;;;8.18;;
72422;SDS011;71399;54.146;38.734;2024-03-22T02:38:29;21.48;;;7.97;;
72422;SDS011;71399;54.146;38.734;2024-03-22T02:40:57;28.63;;;9.45;;
72422;SDS011;71399;54.146;38.734;2024-03-22T02:43:24;24.33;;;9.88;;
72422;SDS011;71399;54.146;38.734;2024-03-22T02:45:51;26.55;;;8.18;;
72422;SDS011;71399;54.146;38.734;2024-03-22T02:48:17;22.35;;;8.75;;
72422;SDS011;71399;54.146;38.734;2024-03-22T02:50:43;27.85;;;9.32;;
72422;SDS011;71399;54.146;38.734;2024-03-22T02:53:10;17.55;;;9.10;;
72422;SDS011;71399;54.146;38.734;2024-03-22T02:55:37;29.90;;;9.52;;
72422;SDS011;71399;54.146;38.734;2024-03-22T02:58:05;23.52;;;9.27;;
72422;SDS011;71399;54.146;38.734;2024-03-22T03:00:36;26.00;;;9.77;;
72422;SDS011;71399;54.146;38.734;2024-03-22T03:03:04;33.60;;;9.30;;
72422;SDS011;71399;54.146;38.734;2024-03-22T03:05:31;21.90;;;9.65;;
72422;SDS011;71399;54.146;38.734;2024-03-22T03:07:58;25.20;;;10.10;;
72422;SDS011;71399;54.146;38.734;2024-03-22T03:10:24;26.30;;;9.20;;
72422;SDS011;71399;54.146;38.734;2024-03-22T03:12:53;24.67;;;9.93;;
72422;SDS011;71399;54.146;38.734;2024-03-22T03:15:21;30.10;;;10.50;;
72422;SDS011;71399;54.146;38.734;2024-03-22T03:17:47;29.25;;;9.80;;
72422;SDS011;71399;54.146;38.734;2024-03-22T03:20:14;26.15;;;10.15;;
72422;SDS011;71399;54.146;38.734;2024-03-22T03:22:42;25.17;;;9.55;;
72422;SDS011;71399;54.146;38.734;2024-03-22T03:25:08;21.90;;;9.82;;
72422;SDS011;71399;54.146;38.734;2024-03-22T03:27:35;35.60;;;10.60;;
72422;SDS011;71399;54.146;38.734;2024-03-22T03:30:02;22.52;;;9.52;;
72422;SDS011;71399;54.146;38.734;2024-03-22T03:32:33;24.98;;;9.02;;
72422;SDS011;71399;54.146;38.734;2024-03-22T03:35:01;28.98;;;10.25;;
72422;SDS011;71399;54.146;38.734;2024-03-22T03:37:30;26.30;;;10.13;;
72422;SDS011;71399;54.146;38.734;2024-03-22T03:39:57;33.85;;;10.60;;
72422;SDS011;71399;54.146;38.734;2024-03-22T03:42:23;25.92;;;9.93;;
72422;SDS011;71399;54.146;38.734;2024-03-22T03:44:50;29.45;;;10.15;;
72422;SDS011;71399;54.146;38.734;2024-03-22T03:47:16;23.65;;;11.00;;
72422;SDS011;71399;54.146;38.734;2024-03-22T03:49:44;26.05;;;10.32;;
72422;SDS011;71399;54.146;38.734;2024-03-22T03:52:11;35.45;;;10.60;;
72422;SDS011;71399;54.146;38.734;2024-03-22T03:54:37;29.48;;;11.07;;
72422;SDS011;71399;54.146;38.734;2024-03-22T03:57:04;25.15;;;10.15;;
72422;SDS011;71399;54.146;38.734;2024-03-22T03:59:31;32.03;;;11.18;;
72422;SDS011;71399;54.146;38.734;2024-03-22T04:01:57;29.45;;;11.68;;
72422;SDS011;71399;54.146;38.734;2024-03-22T04:04:23;22.80;;;9.80;;
72422;SDS011;71399;54.146;38.734;2024-03-22T04:06:50;28.40;;;10.05;;
72422;SDS011;71399;54.146;38.734;2024-03-22T04:09:16;27.17;;;9.52;;
72422;SDS011;71399;54.146;38.734;2024-03-22T04:11:42;27.20;;;10.65;;
72422;SDS011;71399;54.146;38.734;2024-03-22T04:14:09;25.55;;;9.70;;
72422;SDS011;71399;54.146;38.734;2024-03-22T04:16:36;26.42;;;10.75;;
72422;SDS011;71399;54.146;38.734;2024-03-22T04:19:02;25.48;;;10.05;;
72422;SDS011;71399;54.146;38.734;2024-03-22T04:21:28;29.13;;;11.70;;
72422;SDS011;71399;54.146;38.734;2024-03-22T04:23:55;31.40;;;11.00;;
72422;SDS011;71399;54.146;38.734;2024-03-22T04:26:21;28.60;;;10.60;;
72422;SDS011;71399;54.146;38.734;2024-03-22T04:28:48;34.20;;;12.48;;
72422;SDS011;71399;54.146;38.734;2024-03-22T04:31:15;35.50;;;12.90;;
72422;SDS011;71399;54.146;38.734;2024-03-22T04:33:41;30.25;;;11.77;;
72422;SDS011;71399;54.146;38.734;2024-03-22T04:36:07;28.98;;;10.65;;
72422;SDS011;71399;54.146;38.734;2024-03-22T04:38:37;26.90;;;11.48;;
72422;SDS011;71399;54.146;38.734;2024-03-22T04:41:03;30.02;;;10.30;;
72422;SDS011;71399;54.146;38.734;2024-03-22T04:43:29;23.73;;;9.75;;
72422;SDS011;71399;54.146;38.734;2024-03-22T04:45:56;35.20;;;12.80;;
72422;SDS011;71399;54.146;38.734;2024-03-22T04:48:23;22.17;;;10.27;;
72422;SDS011;71399;54.146;38.734;2024-03-22T04:50:50;33.30;;;12.00;;
72422;SDS011;71399;54.146;38.734;2024-03-22T04:53:18;27.40;;;10.60;;
72422;SDS011;71399;54.146;38.734;2024-03-22T04:55:48;32.38;;;11.82;;
72422;SDS011;71399;54.146;38.734;2024-03-22T04:58:16;31.65;;;11.43;;
72422;SDS011;71399;54.146;38.734;2024-03-22T05:00:43;27.55;;;11.75;;
72422;SDS011;71399;54.146;38.734;2024-03-22T05:03:10;29.48;;;11.60;;
72422;SDS011;71399;54.146;38.734;2024-03-22T05:05:36;29.17;;;11.00;;
72422;SDS011;71399;54.146;38.734;2024-03-22T05:08:04;26.17;;;11.07;;
72422;SDS011;71399;54.146;38.734;2024-03-22T05:10:31;32.53;;;11.60;;
72422;SDS011;71399;54.146;38.734;2024-03-22T05:12:58;28.70;;;12.43;;
72422;SDS011;71399;54.146;38.734;2024-03-22T05:15:25;33.47;;;13.18;;
72422;SDS011;71399;54.146;38.734;2024-03-22T05:17:53;36.10;;;13.52;;
72422;SDS011;71399;54.146;38.734;2024-03-22T05:20:20;30.95;;;13.18;;
72422;SDS011;71399;54.146;38.734;2024-03-22T05:22:47;33.08;;;13.13;;
72422;SDS011;71399;54.146;38.734;2024-03-22T05:25:13;31.83;;;12.20;;
72422;SDS011;71399;54.146;38.734;2024-03-22T05:27:41;33.67;;;13.52;;
72422;SDS011;71399;54.146;38.734;2024-03-22T05:30:09;31.70;;;12.30;;
72422;SDS011;71399;54.146;38.734;2024-03-22T05:32:36;30.58;;;11.73;;
72422;SDS011;71399;54.146;38.734;2024-03-22T05:35:04;35.75;;;13.75;;
72422;SDS011;71399;54.146;38.734;2024-03-22T05:37:31;28.02;;;13.40;;
72422;SDS011;71399;54.146;38.734;2024-03-22T05:39:58;38.60;;;13.52;;
72422;SDS011;71399;54.146;38.734;2024-03-22T05:42:26;30.23;;;13.68;;
72422;SDS011;71399;54.146;38.734;2024-03-22T05:44:52;37.38;;;13.80;;
72422;SDS011;71399;54.146;38.734;2024-03-22T05:47:19;32.42;;;13.27;;
72422;SDS011;71399;54.146;38.734;2024-03-22T05:49:46;37.42;;;12.60;;
72422;SDS011;71399;54.146;38.734;2024-03-22T05:52:13;32.35;;;12.35;;
72422;SDS011;71399;54.146;38.734;2024-03-22T05:54:39;36.88;;;12.55;;
72422;SDS011;71399;54.146;38.734;2024-03-22T05:57:05;33.00;;;13.10;;
72422;SDS011;71399;54.146;38.734;2024-03-22T05:59:32;29.45;;;12.93;;
72422;SDS011;71399;54.146;38.734;2024-03-22T06:01:59;31.52;;;12.88;;
72422;SDS011;71399;54.146;38.734;2024-03-22T06:04:26;28.05;;;12.27;;
72422;SDS011;71399;54.146;38.734;2024-03-22T06:06:53;35.60;;;12.70;;
72422;SDS011;71399;54.146;38.734;2024-03-22T06:09:19;30.00;;;12.70;;
72422;SDS011;71399;54.146;38.734;2024-03-22T06:12:00;35.67;;;14.43;;
72422;SDS011;71399;54.146;38.734;2024-03-22T06:14:28;32.80;;;14.07;;
72422;SDS011;71399;54.146;38.734;2024-03-22T06:16:55;34.20;;;12.43;;
72422;SDS011;71399;54.146;38.734;2024-03-22T06:19:21;35.92;;;14.23;;
72422;SDS011;71399;54.146;38.734;2024-03-22T06:21:47;34.30;;;14.50;;
72422;SDS011;71399;54.146;38.734;2024-03-22T06:24:13;38.85;;;14.30;;
72422;SDS011;71399;54.146;38.734;2024-03-22T06:26:40;37.53;;;14.65;;
72422;SDS011;71399;54.146;38.734;2024-03-22T06:29:06;29.55;;;14.57;;
72422;SDS011;71399;54.146;38.734;2024-03-22T06:31:33;33.97;;;14.48;;
72422;SDS011;71399;54.146;38.734;2024-03-22T06:33:59;32.45;;;14.07;;
72422;SDS011;71399;54.146;38.734;2024-03-22T06:36:28;35.65;;;14.18;;
72422;SDS011;71399;54.146;38.734;2024-03-22T06:38:56;35.28;;;14.90;;
72422;SDS011;71399;54.146;38.734;2024-03-22T06:41:22;33.67;;;14.60;;
72422;SDS011;71399;54.146;38.734;2024-03-22T06:43:48;33.88;;;15.18;;
72422;SDS011;71399;54.146;38.734;2024-03-22T06:46:14;35.45;;;14.57;;
72422;SDS011;71399;54.146;38.734;2024-03-22T06:48:41;34.72;;;15.35;;
72422;SDS011;71399;54.146;38.734;2024-03-22T06:51:07;40.92;;;15.23;;
72422;SDS011;71399;54.146;38.734;2024-03-22T06:53:33;37.17;;;14.65;;
72422;SDS011;71399;54.146;38.734;2024-03-22T06:55:59;36.72;;;14.93;;
72422;SDS011;71399;54.146;38.734;2024-03-22T06:58:26;39.88;;;15.07;;
72422;SDS011;71399;54.146;38.734;2024-03-22T07:00:52;41.10;;;16.23;;
72422;SDS011;71399;54.146;38.734;2024-03-22T07:03:18;45.05;;;15.43;;
72422;SDS011;71399;54.146;38.734;2024-03-22T07:05:46;36.40;;;15.00;;
72422;SDS011;71399;54.146;38.734;2024-03-22T07:08:13;40.92;;;15.52;;
72422;SDS011;71399;54.146;38.734;2024-03-22T07:10:39;39.15;;;15.20;;
72422;SDS011;71399;54.146;38.734;2024-03-22T07:13:06;40.95;;;15.55;;
72422;SDS011;71399;54.146;38.734;2024-03-22T07:15:32;36.72;;;14.65;;
72422;SDS011;71399;54.146;38.734;2024-03-22T07:17:59;39.83;;;15.32;;
72422;SDS011;71399;54.146;38.734;2024-03-22T07:20:25;36.42;;;14.00;;
72422;SDS011;71399;54.146;38.734;2024-03-22T07:22:52;34.63;;;14.18;;
72422;SDS011;71399;54.146;38.734;2024-03-22T07:25:19;32.15;;;15.57;;
72422;SDS011;71399;54.146;38.734;2024-03-22T07:27:45;38.40;;;15.25;;
72422;SDS011;71399;54.146;38.734;2024-03-22T07:30:13;33.25;;;14.50;;
72422;SDS011;71399;54.146;38.734;2024-03-22T07:32:40;35.03;;;14.80;;
72422;SDS011;71399;54.146;38.734;2024-03-22T07:35:06;37.80;;;15.57;;
72422;SDS011;71399;54.146;38.734;2024-03-22T07:37:35;40.10;;;16.70;;
72422;SDS011;71399;54.146;38.734;2024-03-22T07:40:02;34.47;;;15.18;;
72422;SDS011;71399;54.146;38.734;2024-03-22T07:42:29;38.67;;;17.42;;
72422;SDS011;71399;54.146;38.734;2024-03-22T07:44:56;42.30;;;15.20;;
72422;SDS011;71399;54.146;38.734;2024-03-22T07:47:22;37.72;;;16.38;;
72422;SDS011;71399;54.146;38.734;2024-03-22T07:49:48;39.80;;;16.80;;
72422;SDS011;71399;54.146;38.734;2024-03-22T07:52:16;35.42;;;16.05;;
72422;SDS011;71399;54.146;38.734;2024-03-22T07:54:42;35.10;;;15.90;;
72422;SDS011;71399;54.146;38.734;2024-03-22T07:57:08;38.83;;;16.75;;
72422;SDS011;71399;54.146;38.734;2024-03-22T07:59:36;44.47;;;16.92;;
72422;SDS011;71399;54.146;38.734;2024-03-22T08:02:02;41.22;;;16.17;;
72422;SDS011;71399;54.146;38.734;2024-03-22T08:04:29;39.97;;;16.92;;
72422;SDS011;71399;54.146;38.734;2024-03-22T08:06:55;38.95;;;16.92;;
72422;SDS011;71399;54.146;38.734;2024-03-22T08:09:21;37.40;;;15.20;;
72422;SDS011;71399;54.146;38.734;2024-03-22T08:11:48;40.03;;;16.05;;
72422;SDS011;71399;54.146;38.734;2024-03-22T08:14:14;36.47;;;16.17;;
72422;SDS011;71399;54.146;38.734;2024-03-22T08:16:41;41.00;;;17.58;;
72422;SDS011;71399;54.146;38.734;2024-03-22T08:19:08;39.53;;;16.20;;
72422;SDS011;71399;54.146;38.734;2024-03-22T08:21:34;38.42;;;17.05;;
72422;SDS011;71399;54.146;38.734;2024-03-22T08:24:02;38.08;;;16.88;;
72422;SDS011;71399;54.146;38.734;2024-03-22T08:26:28;38.75;;;16.58;;
72422;SDS011;71399;54.146;38.734;2024-03-22T08:28:55;37.30;;;16.38;;
72422;SDS011;71399;54.146;38.734;2024-03-22T08:31:21;35.08;;;16.00;;
72422;SDS011;71399;54.146;38.734;2024-03-22T08:33:51;39.00;;;15.70;;
72422;SDS011;71399;54.146;38.734;2024-03-22T08:36:18;35.97;;;16.23;;
72422;SDS011;71399;54.146;38.734;2024-03-22T08:38:44;41.63;;;15.93;;
72422;SDS011;71399;54.146;38.734;2024-03-22T08:41:10;36.28;;;16.15;;
72422;SDS011;71399;54.146;38.734;2024-03-22T08:43:37;36.20;;;15.52;;
72422;SDS011;71399;54.146;38.734;2024-03-22T08:46:03;38.92;;;15.30;;
72422;SDS011;71399;54.146;38.734;2024-03-22T08:48:29;35.75;;;15.73;;
72422;SDS011;71399;54.146;38.734;2024-03-22T08:50:55;35.95;;;15.30;;
72422;SDS011;71399;54.146;38.734;2024-03-22T08:53:22;35.58;;;15.93;;
72422;SDS011;71399;54.146;38.734;2024-03-22T08:55:48;32.55;;;14.95;;
72422;SDS011;71399;54.146;38.734;2024-03-22T08:58:14;38.05;;;14.52;;
72422;SDS011;71399;54.146;38.734;2024-03-22T09:00:43;34.88;;;15.65;;
72422;SDS011;71399;54.146;38.734;2024-03-22T09:03:10;37.90;;;16.38;;
72422;SDS011;71399;54.146;38.734;2024-03-22T09:05:36;34.28;;;14.18;;
72422;SDS011;71399;54.146;38.734;2024-03-22T09:08:03;30.02;;;15.05;;
72422;SDS011;71399;54.146;38.734;2024-03-22T09:10:30;40.00;;;17.25;;
72422;SDS011;71399;54.146;38.734;2024-03-22T09:12:56;34.85;;;16.42;;
72422;SDS011;71399;54.146;38.734;2024-03-22T09:15:23;38.63;;;16.67;;
72422;SDS011;71399;54.146;38.734;2024-03-22T09:17:51;40.10;;;17.23;;
72422;SDS011;71399;54.146;38.734;2024-03-22T09:20:18;40.90;;;18.08;;
72422;SDS011;71399;54.146;38.734;2024-03-22T09:22:45;34.42;;;14.95;;
72422;SDS011;71399;54.146;38.734;2024-03-22T09:25:12;36.83;;;15.57;;
72422;SDS011;71399;54.146;38.734;2024-03-22T09:27:38;39.88;;;17.88;;
72422;SDS011;71399;54.146;38.734;2024-03-22T09:30:05;38.40;;;18.08;;
72422;SDS011;71399;54.146;38.734;2024-03-22T09:32:32;36.75;;;16.00;;
72422;SDS011;71399;54.146;38.734;2024-03-22T09:34:58;39.25;;;16.60;;
72422;SDS011;71399;54.146;38.734;2024-03-22T09:37:24;36.83;;;15.82;;
72422;SDS011;71399;54.146;38.734;2024-03-22T09:39:50;34.20;;;15.77;;
72422;SDS011;71399;54.146;38.734;2024-03-22T09:42:17;35.78;;;16.15;;
72422;SDS011;71399;54.146;38.734;2024-03-22T09:44:46;35.13;;;15.65;;
72422;SDS011;71399;54.146;38.734;2024-03-22T09:47:17;37.05;;;15.43;;
72422;SDS011;71399;54.146;38.734;2024-03-22T09:49:45;31.85;;;14.13;;
72422;SDS011;71399;54.146;38.734;2024-03-22T09:52:14;34.03;;;14.98;;
72422;SDS011;71399;54.146;38.734;2024-03-22T09:54:45;32.90;;;13.43;;
72422;SDS011;71399;54.146;38.734;2024-03-22T09:57:15;26.75;;;13.35;;
72422;SDS011;71399;54.146;38.734;2024-03-22T09:59:42;31.83;;;13.48;;
72422;SDS011;71399;54.146;38.734;2024-03-22T10:02:10;27.33;;;12.48;;
72422;SDS011;71399;54.146;38.734;2024-03-22T10:04:40;26.75;;;12.90;;
72422;SDS011;71399;54.146;38.734;2024-03-22T10:07:07;24.55;;;11.02;;
72422;SDS011;71399;54.146;38.734;2024-03-22T10:09:36;25.00;;;11.27;;
72422;SDS011;71399;54.146;38.734;2024-03-22T10:12:03;23.63;;;11.27;;
72422;SDS011;71399;54.146;38.734;2024-03-22T10:14:30;25.65;;;11.18;;
72422;SDS011;71399;54.146;38.734;2024-03-22T10:16:58;25.23;;;10.60;;
72422;SDS011;71399;54.146;38.734;2024-03-22T10:19:24;25.98;;;11.40;;
72422;SDS011;71399;54.146;38.734;2024-03-22T10:22:00;25.75;;;11.02;;
72422;SDS011;71399;54.146;38.734;2024-03-22T10:24:28;23.67;;;10.60;;
72422;SDS011;71399;54.146;38.734;2024-03-22T10:26:55;26.17;;;12.02;;
72422;SDS011;71399;54.146;38.734;2024-03-22T10:29:22;24.95;;;10.52;;
72422;SDS011;71399;54.146;38.734;2024-03-22T10:31:53;25.98;;;11.23;;
72422;SDS011;71399;54.146;38.734;2024-03-22T10:34:20;26.90;;;11.02;;
72422;SDS011;71399;54.146;38.734;2024-03-22T10:36:48;24.52;;;10.65;;
72422;SDS011;71399;54.146;38.734;2024-03-22T10:39:18;24.88;;;11.15;;
72422;SDS011;71399;54.146;38.734;2024-03-22T10:41:45;27.80;;;11.63;;
72422;SDS011;71399;54.146;38.734;2024-03-22T10:44:14;26.85;;;11.30;;
72422;SDS011;71399;54.146;38.734;2024-03-22T10:46:45;24.05;;;10.70;;
72422;SDS011;71399;54.146;38.734;2024-03-22T10:49:16;27.20;;;10.98;;
72422;SDS011;71399;54.146;38.734;2024-03-22T10:51:45;26.85;;;11.20;;
72422;SDS011;71399;54.146;38.734;2024-03-22T10:54:17;26.63;;;11.48;;
72422;SDS011;71399;54.146;38.734;2024-03-22T10:56:46;25.70;;;11.45;;
72422;SDS011;71399;54.146;38.734;2024-03-22T10:59:18;23.63;;;10.88;;
72422;SDS011;71399;54.146;38.734;2024-03-22T11:01:45;24.48;;;10.23;;
72422;SDS011;71399;54.146;38.734;2024-03-22T11:04:15;26.67;;;11.23;;
72422;SDS011;71399;54.146;38.734;2024-03-22T11:06:49;26.70;;;11.60;;
72422;SDS011;71399;54.146;38.734;2024-03-22T11:09:26;28.30;;;12.70;;
72422;SDS011;71399;54.146;38.734;2024-03-22T11:11:53;28.92;;;12.82;;
72422;SDS011;71399;54.146;38.734;2024-03-22T11:14:22;30.23;;;12.95;;
72422;SDS011;71399;54.146;38.734;2024-03-22T11:16:52;29.50;;;12.65;;
72422;SDS011;71399;54.146;38.734;2024-03-22T11:19:18;23.58;;;11.13;;
72422;SDS011;71399;54.146;38.734;2024-03-22T11:21:45;24.38;;;11.45;;
72422;SDS011;71399;54.146;38.734;2024-03-22T11:24:11;25.95;;;12.63;;
72422;SDS011;71399;54.146;38.734;2024-03-22T11:26:38;23.58;;;11.43;;
72422;SDS011;71399;54.146;38.734;2024-03-22T11:29:04;24.30;;;12.02;;
72422;SDS011;71399;54.146;38.734;2024-03-22T11:31:31;27.63;;;11.80;;
72422;SDS011;71399;54.146;38.734;2024-03-22T11:33:58;25.50;;;11.68;;
72422;SDS011;71399;54.146;38.734;2024-03-22T11:36:24;26.50;;;11.75;;
72422;SDS011;71399;54.146;38.734;2024-03-22T11:38:50;23.35;;;10.95;;
72422;SDS011;71399;54.146;38.734;2024-03-22T11:41:21;26.02;;;11.45;;
72422;SDS011;71399;54.146;38.734;2024-03-22T11:43:52;26.85;;;11.50;;
72422;SDS011;71399;54.146;38.734;2024-03-22T11:46:19;24.85;;;11.40;;
72422;SDS011;71399;54.146;38.734;2024-03-22T11:48:54;25.42;;;11.82;;
72422;SDS011;71399;54.146;38.734;2024-03-22T11:51:20;21.17;;;11.25;;
72422;SDS011;71399;54.146;38.734;2024-03-22T11:53:50;26.25;;;11.80;;
72422;SDS011;71399;54.146;38.734;2024-03-22T11:56:19;26.45;;;12.63;;
72422;SDS011;71399;54.146;38.734;2024-03-22T11:58:48;25.75;;;11.68;;
72422;SDS011;71399;54.146;38.734;2024-03-22T12:01:15;24.83;;;11.30;;
72422;SDS011;71399;54.146;38.734;2024-03-22T12:03:48;27.08;;;12.55;;
72422;SDS011;71399;54.146;38.734;2024-03-22T12:06:15;25.17;;;10.57;;
72422;SDS011;71399;54.146;38.734;2024-03-22T12:08:41;22.48;;;10.98;;
72422;SDS011;71399;54.146;38.734;2024-03-22T12:11:08;29.35;;;12.43;;
72422;SDS011;71399;54.146;38.734;2024-03-22T12:13:35;23.45;;;10.57;;
72422;SDS011;71399;54.146;38.734;2024-03-22T12:16:03;29.85;;;11.60;;
72422;SDS011;71399;54.146;38.734;2024-03-22T12:18:30;30.52;;;13.13;;
72422;SDS011;71399;54.146;38.734;2024-03-22T12:20:56;28.10;;;11.60;;
72422;SDS011;71399;54.146;38.734;2024-03-22T12:23:23;29.00;;;11.75;;
72422;SDS011;71399;54.146;38.734;2024-03-22T12:25:51;27.95;;;12.45;;
72422;SDS011;71399;54.146;38.734;2024-03-22T12:28:18;31.35;;;12.48;;
72422;SDS011;71399;54.146;38.734;2024-03-22T12:30:47;28.20;;;12.13;;
72422;SDS011;71399;54.146;38.734;2024-03-22T12:33:16;27.77;;;11.20;;
72422;SDS011;71399;54.146;38.734;2024-03-22T12:35:43;33.28;;;13.05;;
72422;SDS011;71399;54.146;38.734;2024-03-22T12:38:09;27.20;;;11.85;;
72422;SDS011;71399;54.146;38.734;2024-03-22T12:40:38;27.52;;;11.55;;
72422;SDS011;71399;54.146;38.734;2024-03-22T12:43:05;28.15;;;12.35;;
72422;SDS011;71399;54.146;38.734;2024-03-22T12:45:34;30.25;;;12.63;;
72422;SDS011;71399;54.146;38.734;2024-03-22T12:48:01;30.05;;;12.30;;
72422;SDS011;71399;54.146;38.734;2024-03-22T12:50:27;30.55;;;12.30;;
72422;SDS011;71399;54.146;38.734;2024-03-22T12:52:54;32.58;;;12.07;;
72422;SDS011;71399;54.146;38.734;2024-03-22T12:55:20;31.63;;;11.98;;
72422;SDS011;71399;54.146;38.734;2024-03-22T12:57:47;27.45;;;11.15;;
72422;SDS011;71399;54.146;38.734;2024-03-22T13:00:13;27.85;;;11.85;;
72422;SDS011;71399;54.146;38.734;2024-03-22T13:02:44;28.73;;;11.82;;
72422;SDS011;71399;54.146;38.734;2024-03-22T13:05:12;29.42;;;11.75;;
72422;SDS011;71399;54.146;38.734;2024-03-22T13:07:39;28.83;;;12.48;;
72422;SDS011;71399;54.146;38.734;2024-03-22T13:10:05;27.70;;;11.57;;
72422;SDS011;71399;54.146;38.734;2024-03-22T13:12:32;28.02;;;12.60;;
72422;SDS011;71399;54.146;38.734;2024-03-22T13:15:02;29.83;;;11.65;;
72422;SDS011;71399;54.146;38.734;2024-03-22T13:17:32;35.00;;;12.30;;
72422;SDS011;71399;54.146;38.734;2024-03-22T13:19:58;31.13;;;12.38;;
72422;SDS011;71399;54.146;38.734;2024-03-22T13:22:26;28.63;;;11.15;;
72422;SDS011;71399;54.146;38.734;2024-03-22T13:24:52;33.78;;;11.20;;
72422;SDS011;71399;54.146;38.734;2024-03-22T13:27:18;34.13;;;11.70;;
72422;SDS011;71399;54.146;38.734;2024-03-22T13:29:48;32.05;;;13.13;;
72422;SDS011;71399;54.146;38.734;2024-03-22T13:32:15;32.28;;;12.02;;
72422;SDS011;71399;54.146;38.734;2024-03-22T13:34:43;28.88;;;12.25;;
72422;SDS011;71399;54.146;38.734;2024-03-22T13:37:09;30.73;;;12.15;;
72422;SDS011;71399;54.146;38.734;2024-03-22T13:39:35;30.63;;;12.05;;
72422;SDS011;71399;54.146;38.734;2024-03-22T13:42:02;29.35;;;13.00;;
72422;SDS011;71399;54.146;38.734;2024-03-22T13:44:28;32.80;;;11.93;;
72422;SDS011;71399;54.146;38.734;2024-03-22T13:46:55;29.02;;;11.10;;
72422;SDS011;71399;54.146;38.734;2024-03-22T13:49:21;30.30;;;11.63;;
72422;SDS011;71399;54.146;38.734;2024-03-22T13:51:47;36.75;;;12.38;;
72422;SDS011;71399;54.146;38.734;2024-03-22T13:54:14;30.33;;;11.75;;
72422;SDS011;71399;54.146;38.734;2024-03-22T13:56:41;28.55;;;11.10;;
72422;SDS011;71399;54.146;38.734;2024-03-22T13:59:07;30.27;;;12.50;;
72422;SDS011;71399;54.146;38.734;2024-03-22T14:01:35;28.92;;;11.60;;
72422;SDS011;71399;54.146;38.734;2024-03-22T14:04:02;31.80;;;11.95;;
72422;SDS011;71399;54.146;38.734;2024-03-22T14:06:30;35.15;;;12.98;;
72422;SDS011;71399;54.146;38.734;2024-03-22T14:08:58;38.72;;;13.07;;
72422;SDS011;71399;54.146;38.734;2024-03-22T14:11:28;31.02;;;11.90;;